sensor_id;sensor_type;location;lat;lon;timestamp;P1;durP1;ratioP1;P2;durP2;ratioP2
70547;SDS011;58099;43.406;3.698;2022-10-31T12:59:36;19.38;;;7.22;;
70547;SDS011;58099;43.406;3.698;2022-10-31T13:02:16;17.17;;;6.50;;
70547;SDS011;58099;43.406;3.698;2022-10-31T13:07:25;17.07;;;7.07;;
70547;SDS011;58099;43.406;3.698;2022-10-31T13:10:15;26.20;;;7.75;;
70547;SDS011;58099;43.406;3.698;2022-10-31T13:12:48;24.50;;;7.40;;
70547;SDS011;58099;43.406;3.698;2022-10-31T13:15:18;20.08;;;7.55;;
70547;SDS011;58099;43.406;3.698;2022-10-31T13:17:50;19.92;;;6.65;;
70547;SDS011;58099;43.406;3.698;2022-10-31T13:20:32;24.50;;;7.20;;
70547;SDS011;58099;43.406;3.698;2022-10-31T13:25:47;17.77;;;7.05;;
70547;SDS011;58099;43.406;3.698;2022-10-31T13:30:53;17.02;;;6.60;;
70547;SDS011;58099;43.406;3.698;2022-10-31T13:33:21;21.23;;;7.40;;
70547;SDS011;58099;43.406;3.698;2022-10-31T13:35:59;23.48;;;8.15;;
70547;SDS011;58099;43.406;3.698;2022-10-31T13:38:51;20.35;;;8.10;;
70547;SDS011;58099;43.406;3.698;2022-10-31T13:41:22;20.60;;;7.10;;
70547;SDS011;58099;43.406;3.698;2022-10-31T13:44:00;22.30;;;8.00;;
70547;SDS011;58099;43.406;3.698;2022-10-31T13:46:38;23.33;;;7.60;;
70547;SDS011;58099;43.406;3.698;2022-10-31T13:54:52;16.67;;;7.20;;
70547;SDS011;58099;43.406;3.698;2022-10-31T13:59:56;21.85;;;8.23;;
70547;SDS011;58099;43.406;3.698;2022-10-31T14:02:28;22.08;;;7.05;;
70547;SDS011;58099;43.406;3.698;2022-10-31T14:05:03;17.58;;;6.95;;
70547;SDS011;58099;43.406;3.698;2022-10-31T14:07:47;17.90;;;7.47;;
70547;SDS011;58099;43.406;3.698;2022-10-31T14:12:51;21.33;;;8.07;;
70547;SDS011;58099;43.406;3.698;2022-10-31T14:15:19;20.73;;;7.90;;
70547;SDS011;58099;43.406;3.698;2022-10-31T14:17:50;23.00;;;7.55;;
70547;SDS011;58099;43.406;3.698;2022-10-31T14:20:22;19.23;;;8.07;;
70547;SDS011;58099;43.406;3.698;2022-10-31T14:28:51;23.80;;;7.95;;
70547;SDS011;58099;43.406;3.698;2022-10-31T14:34:01;23.20;;;7.90;;
70547;SDS011;58099;43.406;3.698;2022-10-31T14:36:39;29.30;;;9.30;;
70547;SDS011;58099;43.406;3.698;2022-10-31T14:39:24;25.88;;;8.50;;
70547;SDS011;58099;43.406;3.698;2022-10-31T14:47:43;20.77;;;7.80;;
70547;SDS011;58099;43.406;3.698;2022-10-31T14:52:48;29.23;;;8.77;;
70547;SDS011;58099;43.406;3.698;2022-10-31T14:55:16;30.73;;;8.32;;
70547;SDS011;58099;43.406;3.698;2022-10-31T14:57:51;24.33;;;7.85;;
70547;SDS011;58099;43.406;3.698;2022-10-31T15:00:23;28.03;;;8.83;;
70547;SDS011;58099;43.406;3.698;2022-10-31T15:05:41;28.20;;;9.70;;
70547;SDS011;58099;43.406;3.698;2022-10-31T15:10:58;25.70;;;9.18;;
70547;SDS011;58099;43.406;3.698;2022-10-31T15:13:27;19.43;;;7.07;;
70547;SDS011;58099;43.406;3.698;2022-10-31T15:15:54;27.10;;;8.75;;
70547;SDS011;58099;43.406;3.698;2022-10-31T15:18:25;20.08;;;7.80;;
70547;SDS011;58099;43.406;3.698;2022-10-31T15:20:53;26.67;;;9.27;;
70547;SDS011;58099;43.406;3.698;2022-10-31T15:23:29;24.85;;;7.85;;
70547;SDS011;58099;43.406;3.698;2022-10-31T15:26:03;25.92;;;8.00;;
70547;SDS011;58099;43.406;3.698;2022-10-31T15:28:30;21.02;;;8.45;;
70547;SDS011;58099;43.406;3.698;2022-10-31T15:31:00;22.85;;;8.73;;
70547;SDS011;58099;43.406;3.698;2022-10-31T15:33:31;32.60;;;10.10;;
70547;SDS011;58099;43.406;3.698;2022-10-31T15:36:04;21.23;;;7.90;;
70547;SDS011;58099;43.406;3.698;2022-10-31T15:38:30;26.20;;;9.57;;
70547;SDS011;58099;43.406;3.698;2022-10-31T15:41:03;22.65;;;7.85;;
70547;SDS011;58099;43.406;3.698;2022-10-31T15:43:35;29.63;;;10.43;;
70547;SDS011;58099;43.406;3.698;2022-10-31T15:46:03;23.02;;;8.52;;
70547;SDS011;58099;43.406;3.698;2022-10-31T15:48:31;26.17;;;8.23;;
70547;SDS011;58099;43.406;3.698;2022-10-31T15:50:59;25.65;;;9.98;;
70547;SDS011;58099;43.406;3.698;2022-10-31T15:53:29;22.83;;;9.80;;
70547;SDS011;58099;43.406;3.698;2022-10-31T15:56:10;28.37;;;8.80;;
70547;SDS011;58099;43.406;3.698;2022-10-31T15:58:44;27.15;;;9.73;;
70547;SDS011;58099;43.406;3.698;2022-10-31T16:01:23;16.70;;;7.90;;
70547;SDS011;58099;43.406;3.698;2022-10-31T16:04:03;21.20;;;8.13;;
70547;SDS011;58099;43.406;3.698;2022-10-31T16:06:33;27.00;;;9.35;;
70547;SDS011;58099;43.406;3.698;2022-10-31T16:08:59;20.03;;;7.83;;
70547;SDS011;58099;43.406;3.698;2022-10-31T16:13:58;21.27;;;8.43;;
70547;SDS011;58099;43.406;3.698;2022-10-31T16:16:26;19.67;;;7.85;;
70547;SDS011;58099;43.406;3.698;2022-10-31T16:18:54;20.73;;;8.48;;
70547;SDS011;58099;43.406;3.698;2022-10-31T16:21:28;22.77;;;9.17;;
70547;SDS011;58099;43.406;3.698;2022-10-31T16:24:04;33.50;;;10.73;;
70547;SDS011;58099;43.406;3.698;2022-10-31T16:26:46;21.33;;;9.30;;
70547;SDS011;58099;43.406;3.698;2022-10-31T16:29:33;22.95;;;8.77;;
70547;SDS011;58099;43.406;3.698;2022-10-31T16:31:59;29.08;;;10.10;;
70547;SDS011;58099;43.406;3.698;2022-10-31T16:34:25;23.90;;;9.10;;
70547;SDS011;58099;43.406;3.698;2022-10-31T16:36:50;23.00;;;9.85;;
70547;SDS011;58099;43.406;3.698;2022-10-31T16:39:16;30.53;;;11.70;;
70547;SDS011;58099;43.406;3.698;2022-10-31T16:41:46;26.17;;;10.30;;
70547;SDS011;58099;43.406;3.698;2022-10-31T16:46:46;28.00;;;9.93;;
70547;SDS011;58099;43.406;3.698;2022-10-31T16:49:12;22.33;;;8.52;;
70547;SDS011;58099;43.406;3.698;2022-10-31T16:51:40;21.30;;;8.02;;
70547;SDS011;58099;43.406;3.698;2022-10-31T16:54:06;21.33;;;8.50;;
70547;SDS011;58099;43.406;3.698;2022-10-31T16:56:34;24.73;;;10.00;;
70547;SDS011;58099;43.406;3.698;2022-10-31T16:59:02;22.30;;;10.05;;
70547;SDS011;58099;43.406;3.698;2022-10-31T17:01:29;27.63;;;10.88;;
70547;SDS011;58099;43.406;3.698;2022-10-31T17:03:56;22.90;;;10.10;;
70547;SDS011;58099;43.406;3.698;2022-10-31T17:06:22;24.50;;;10.50;;
70547;SDS011;58099;43.406;3.698;2022-10-31T17:08:47;26.23;;;10.48;;
70547;SDS011;58099;43.406;3.698;2022-10-31T17:11:15;25.20;;;10.53;;
70547;SDS011;58099;43.406;3.698;2022-10-31T17:13:43;22.15;;;11.15;;
70547;SDS011;58099;43.406;3.698;2022-10-31T17:16:09;21.58;;;9.48;;
70547;SDS011;58099;43.406;3.698;2022-10-31T17:18:38;30.02;;;9.93;;
70547;SDS011;58099;43.406;3.698;2022-10-31T17:21:04;24.90;;;9.35;;
70547;SDS011;58099;43.406;3.698;2022-10-31T17:23:30;20.80;;;9.73;;
70547;SDS011;58099;43.406;3.698;2022-10-31T17:25:57;23.63;;;9.38;;
70547;SDS011;58099;43.406;3.698;2022-10-31T17:28:23;25.80;;;9.98;;
70547;SDS011;58099;43.406;3.698;2022-10-31T17:30:50;25.23;;;9.85;;
70547;SDS011;58099;43.406;3.698;2022-10-31T17:33:18;22.38;;;9.75;;
70547;SDS011;58099;43.406;3.698;2022-10-31T17:35:44;20.37;;;8.93;;
70547;SDS011;58099;43.406;3.698;2022-10-31T17:38:10;22.85;;;9.68;;
70547;SDS011;58099;43.406;3.698;2022-10-31T17:40:37;25.43;;;10.30;;
70547;SDS011;58099;43.406;3.698;2022-10-31T17:43:05;21.05;;;8.82;;
70547;SDS011;58099;43.406;3.698;2022-10-31T17:45:31;27.15;;;10.35;;
70547;SDS011;58099;43.406;3.698;2022-10-31T17:47:57;23.00;;;10.23;;
70547;SDS011;58099;43.406;3.698;2022-10-31T17:50:23;28.67;;;10.75;;
70547;SDS011;58099;43.406;3.698;2022-10-31T17:52:50;23.97;;;9.70;;
70547;SDS011;58099;43.406;3.698;2022-10-31T17:55:16;24.77;;;10.75;;
70547;SDS011;58099;43.406;3.698;2022-10-31T17:57:42;24.30;;;9.68;;
70547;SDS011;58099;43.406;3.698;2022-10-31T18:00:09;25.55;;;9.80;;
70547;SDS011;58099;43.406;3.698;2022-10-31T18:02:46;27.83;;;9.90;;
70547;SDS011;58099;43.406;3.698;2022-10-31T18:05:12;22.85;;;9.23;;
70547;SDS011;58099;43.406;3.698;2022-10-31T18:07:38;24.98;;;9.93;;
70547;SDS011;58099;43.406;3.698;2022-10-31T18:10:04;22.50;;;9.30;;
70547;SDS011;58099;43.406;3.698;2022-10-31T18:12:30;17.20;;;8.52;;
70547;SDS011;58099;43.406;3.698;2022-10-31T18:14:56;25.20;;;11.23;;
70547;SDS011;58099;43.406;3.698;2022-10-31T18:17:22;26.92;;;9.40;;
70547;SDS011;58099;43.406;3.698;2022-10-31T18:19:48;27.05;;;10.07;;
70547;SDS011;58099;43.406;3.698;2022-10-31T18:22:13;19.88;;;9.32;;
70547;SDS011;58099;43.406;3.698;2022-10-31T18:24:39;24.92;;;9.48;;
70547;SDS011;58099;43.406;3.698;2022-10-31T18:27:05;20.40;;;8.40;;
70547;SDS011;58099;43.406;3.698;2022-10-31T18:29:31;26.23;;;9.68;;
70547;SDS011;58099;43.406;3.698;2022-10-31T18:31:56;24.60;;;9.00;;
70547;SDS011;58099;43.406;3.698;2022-10-31T18:34:22;27.13;;;10.70;;
70547;SDS011;58099;43.406;3.698;2022-10-31T18:36:48;21.87;;;10.40;;
70547;SDS011;58099;43.406;3.698;2022-10-31T18:39:14;24.48;;;10.10;;
70547;SDS011;58099;43.406;3.698;2022-10-31T18:41:40;27.23;;;10.68;;
70547;SDS011;58099;43.406;3.698;2022-10-31T18:44:06;29.33;;;8.93;;
70547;SDS011;58099;43.406;3.698;2022-10-31T18:46:32;27.15;;;10.18;;
70547;SDS011;58099;43.406;3.698;2022-10-31T18:48:59;24.92;;;10.30;;
70547;SDS011;58099;43.406;3.698;2022-10-31T18:51:25;30.42;;;10.18;;
70547;SDS011;58099;43.406;3.698;2022-10-31T18:53:51;24.08;;;10.63;;
70547;SDS011;58099;43.406;3.698;2022-10-31T18:56:19;31.40;;;11.50;;
70547;SDS011;58099;43.406;3.698;2022-10-31T18:58:45;28.00;;;10.70;;
70547;SDS011;58099;43.406;3.698;2022-10-31T19:01:12;30.30;;;10.75;;
70547;SDS011;58099;43.406;3.698;2022-10-31T19:03:38;30.60;;;10.60;;
70547;SDS011;58099;43.406;3.698;2022-10-31T19:06:05;21.38;;;9.23;;
70547;SDS011;58099;43.406;3.698;2022-10-31T19:08:31;29.07;;;10.53;;
70547;SDS011;58099;43.406;3.698;2022-10-31T19:11:08;32.10;;;10.23;;
70547;SDS011;58099;43.406;3.698;2022-10-31T19:13:35;30.95;;;10.82;;
70547;SDS011;58099;43.406;3.698;2022-10-31T19:16:08;26.25;;;8.80;;
70547;SDS011;58099;43.406;3.698;2022-10-31T19:18:36;23.55;;;9.70;;
70547;SDS011;58099;43.406;3.698;2022-10-31T19:21:06;22.70;;;9.57;;
70547;SDS011;58099;43.406;3.698;2022-10-31T19:23:36;26.40;;;10.38;;
70547;SDS011;58099;43.406;3.698;2022-10-31T19:26:02;28.27;;;10.85;;
70547;SDS011;58099;43.406;3.698;2022-10-31T19:28:29;25.73;;;9.07;;
70547;SDS011;58099;43.406;3.698;2022-10-31T19:30:56;30.30;;;10.67;;
70547;SDS011;58099;43.406;3.698;2022-10-31T19:33:22;34.70;;;11.45;;
70547;SDS011;58099;43.406;3.698;2022-10-31T19:35:50;32.05;;;11.68;;
70547;SDS011;58099;43.406;3.698;2022-10-31T19:38:16;27.27;;;10.23;;
70547;SDS011;58099;43.406;3.698;2022-10-31T19:40:42;28.43;;;10.60;;
70547;SDS011;58099;43.406;3.698;2022-10-31T19:43:08;23.48;;;9.15;;
70547;SDS011;58099;43.406;3.698;2022-10-31T19:45:33;25.50;;;11.70;;
70547;SDS011;58099;43.406;3.698;2022-10-31T19:47:59;24.10;;;10.55;;
70547;SDS011;58099;43.406;3.698;2022-10-31T19:50:25;22.43;;;9.03;;
70547;SDS011;58099;43.406;3.698;2022-10-31T19:52:52;26.48;;;9.70;;
70547;SDS011;58099;43.406;3.698;2022-10-31T19:55:18;25.40;;;9.33;;
70547;SDS011;58099;43.406;3.698;2022-10-31T19:57:44;28.55;;;9.30;;
70547;SDS011;58099;43.406;3.698;2022-10-31T20:00:10;24.73;;;9.30;;
70547;SDS011;58099;43.406;3.698;2022-10-31T20:02:36;28.50;;;11.70;;
70547;SDS011;58099;43.406;3.698;2022-10-31T20:05:01;21.33;;;9.13;;
70547;SDS011;58099;43.406;3.698;2022-10-31T20:07:27;22.33;;;9.85;;
70547;SDS011;58099;43.406;3.698;2022-10-31T20:09:53;26.45;;;9.45;;
70547;SDS011;58099;43.406;3.698;2022-10-31T20:12:20;23.38;;;10.32;;
70547;SDS011;58099;43.406;3.698;2022-10-31T20:14:47;26.20;;;10.07;;
70547;SDS011;58099;43.406;3.698;2022-10-31T20:17:13;26.00;;;10.13;;
70547;SDS011;58099;43.406;3.698;2022-10-31T20:19:39;35.55;;;12.32;;
70547;SDS011;58099;43.406;3.698;2022-10-31T20:22:04;29.60;;;10.90;;
70547;SDS011;58099;43.406;3.698;2022-10-31T20:24:31;29.88;;;10.63;;
70547;SDS011;58099;43.406;3.698;2022-10-31T20:26:57;26.50;;;10.40;;
70547;SDS011;58099;43.406;3.698;2022-10-31T20:29:22;26.33;;;9.80;;
70547;SDS011;58099;43.406;3.698;2022-10-31T20:31:48;27.23;;;12.30;;
70547;SDS011;58099;43.406;3.698;2022-10-31T20:34:14;24.75;;;10.32;;
70547;SDS011;58099;43.406;3.698;2022-10-31T20:36:40;31.88;;;11.60;;
70547;SDS011;58099;43.406;3.698;2022-10-31T20:39:07;27.90;;;11.00;;
70547;SDS011;58099;43.406;3.698;2022-10-31T20:41:37;29.00;;;11.40;;
70547;SDS011;58099;43.406;3.698;2022-10-31T20:44:03;28.70;;;11.32;;
70547;SDS011;58099;43.406;3.698;2022-10-31T20:46:29;28.17;;;11.10;;
70547;SDS011;58099;43.406;3.698;2022-10-31T20:48:55;34.42;;;13.07;;
70547;SDS011;58099;43.406;3.698;2022-10-31T20:51:25;30.60;;;12.02;;
70547;SDS011;58099;43.406;3.698;2022-10-31T20:53:52;29.15;;;11.90;;
70547;SDS011;58099;43.406;3.698;2022-10-31T20:56:21;26.83;;;12.32;;
70547;SDS011;58099;43.406;3.698;2022-10-31T20:58:48;26.85;;;12.50;;
70547;SDS011;58099;43.406;3.698;2022-10-31T21:01:18;27.20;;;11.63;;
70547;SDS011;58099;43.406;3.698;2022-10-31T21:03:46;22.80;;;10.87;;
70547;SDS011;58099;43.406;3.698;2022-10-31T21:06:13;22.65;;;11.52;;
70547;SDS011;58099;43.406;3.698;2022-10-31T21:08:40;29.65;;;13.40;;
70547;SDS011;58099;43.406;3.698;2022-10-31T21:11:07;29.25;;;12.23;;
70547;SDS011;58099;43.406;3.698;2022-10-31T21:13:39;27.13;;;12.07;;
70547;SDS011;58099;43.406;3.698;2022-10-31T21:16:14;33.03;;;11.90;;
70547;SDS011;58099;43.406;3.698;2022-10-31T21:18:42;30.08;;;11.93;;
70547;SDS011;58099;43.406;3.698;2022-10-31T21:21:12;35.53;;;13.65;;
70547;SDS011;58099;43.406;3.698;2022-10-31T21:23:45;34.95;;;11.38;;
70547;SDS011;58099;43.406;3.698;2022-10-31T21:26:18;36.65;;;14.80;;
70547;SDS011;58099;43.406;3.698;2022-10-31T21:28:45;29.07;;;12.33;;
70547;SDS011;58099;43.406;3.698;2022-10-31T21:31:13;24.02;;;10.65;;
70547;SDS011;58099;43.406;3.698;2022-10-31T21:33:41;31.92;;;11.85;;
70547;SDS011;58099;43.406;3.698;2022-10-31T21:36:08;40.47;;;14.60;;
70547;SDS011;58099;43.406;3.698;2022-10-31T21:38:34;39.28;;;13.27;;
70547;SDS011;58099;43.406;3.698;2022-10-31T21:41:00;37.37;;;15.53;;
70547;SDS011;58099;43.406;3.698;2022-10-31T21:43:33;34.90;;;14.65;;
70547;SDS011;58099;43.406;3.698;2022-10-31T21:46:06;32.10;;;14.55;;
70547;SDS011;58099;43.406;3.698;2022-10-31T21:48:37;34.65;;;14.10;;
70547;SDS011;58099;43.406;3.698;2022-10-31T21:51:05;37.35;;;15.95;;
70547;SDS011;58099;43.406;3.698;2022-10-31T21:53:33;35.70;;;14.90;;
70547;SDS011;58099;43.406;3.698;2022-10-31T21:56:17;36.80;;;14.73;;
70547;SDS011;58099;43.406;3.698;2022-10-31T21:58:44;38.30;;;15.85;;
70547;SDS011;58099;43.406;3.698;2022-10-31T22:01:10;40.80;;;15.60;;
70547;SDS011;58099;43.406;3.698;2022-10-31T22:03:36;41.13;;;14.57;;
70547;SDS011;58099;43.406;3.698;2022-10-31T22:06:03;37.40;;;13.33;;
70547;SDS011;58099;43.406;3.698;2022-10-31T22:08:30;36.17;;;14.05;;
70547;SDS011;58099;43.406;3.698;2022-10-31T22:10:55;40.85;;;15.27;;
70547;SDS011;58099;43.406;3.698;2022-10-31T22:13:25;36.00;;;15.47;;
70547;SDS011;58099;43.406;3.698;2022-10-31T22:15:58;35.60;;;13.43;;
70547;SDS011;58099;43.406;3.698;2022-10-31T22:18:28;31.80;;;13.88;;
70547;SDS011;58099;43.406;3.698;2022-10-31T22:20:59;33.42;;;14.73;;
70547;SDS011;58099;43.406;3.698;2022-10-31T22:23:38;37.00;;;14.63;;
70547;SDS011;58099;43.406;3.698;2022-10-31T22:26:05;37.10;;;14.60;;
70547;SDS011;58099;43.406;3.698;2022-10-31T22:28:45;31.30;;;13.38;;
70547;SDS011;58099;43.406;3.698;2022-10-31T22:31:13;30.02;;;13.65;;
70547;SDS011;58099;43.406;3.698;2022-10-31T22:33:41;33.25;;;13.48;;
70547;SDS011;58099;43.406;3.698;2022-10-31T22:36:08;36.20;;;13.82;;
70547;SDS011;58099;43.406;3.698;2022-10-31T22:38:36;32.83;;;13.67;;
70547;SDS011;58099;43.406;3.698;2022-10-31T22:41:04;24.92;;;10.15;;
70547;SDS011;58099;43.406;3.698;2022-10-31T22:43:31;33.58;;;12.10;;
70547;SDS011;58099;43.406;3.698;2022-10-31T22:45:57;31.93;;;14.20;;
70547;SDS011;58099;43.406;3.698;2022-10-31T22:48:26;28.42;;;11.95;;
70547;SDS011;58099;43.406;3.698;2022-10-31T22:50:53;38.13;;;13.25;;
70547;SDS011;58099;43.406;3.698;2022-10-31T22:53:19;35.30;;;13.75;;
70547;SDS011;58099;43.406;3.698;2022-10-31T22:55:44;40.23;;;11.97;;
70547;SDS011;58099;43.406;3.698;2022-10-31T22:58:10;25.17;;;11.40;;
70547;SDS011;58099;43.406;3.698;2022-10-31T23:00:35;39.00;;;12.47;;
70547;SDS011;58099;43.406;3.698;2022-10-31T23:03:01;28.33;;;12.02;;
70547;SDS011;58099;43.406;3.698;2022-10-31T23:05:27;32.73;;;12.77;;
70547;SDS011;58099;43.406;3.698;2022-10-31T23:07:53;27.70;;;12.30;;
70547;SDS011;58099;43.406;3.698;2022-10-31T23:10:18;29.10;;;12.50;;
70547;SDS011;58099;43.406;3.698;2022-10-31T23:12:44;39.43;;;13.67;;
70547;SDS011;58099;43.406;3.698;2022-10-31T23:15:28;35.70;;;14.02;;
70547;SDS011;58099;43.406;3.698;2022-10-31T23:17:55;37.72;;;13.70;;
70547;SDS011;58099;43.406;3.698;2022-10-31T23:20:21;38.60;;;13.87;;
70547;SDS011;58099;43.406;3.698;2022-10-31T23:22:47;38.33;;;14.43;;
70547;SDS011;58099;43.406;3.698;2022-10-31T23:25:12;34.80;;;12.82;;
70547;SDS011;58099;43.406;3.698;2022-10-31T23:27:57;33.13;;;12.90;;
70547;SDS011;58099;43.406;3.698;2022-10-31T23:30:22;35.80;;;12.82;;
70547;SDS011;58099;43.406;3.698;2022-10-31T23:32:48;32.47;;;11.43;;
70547;SDS011;58099;43.406;3.698;2022-10-31T23:35:15;34.40;;;13.77;;
70547;SDS011;58099;43.406;3.698;2022-10-31T23:37:40;33.78;;;13.10;;
70547;SDS011;58099;43.406;3.698;2022-10-31T23:40:06;33.17;;;11.97;;
70547;SDS011;58099;43.406;3.698;2022-10-31T23:42:32;33.33;;;12.57;;
70547;SDS011;58099;43.406;3.698;2022-10-31T23:44:58;39.70;;;13.63;;
70547;SDS011;58099;43.406;3.698;2022-10-31T23:47:24;35.78;;;12.70;;
70547;SDS011;58099;43.406;3.698;2022-10-31T23:49:49;30.43;;;12.03;;
70547;SDS011;58099;43.406;3.698;2022-10-31T23:52:15;33.05;;;11.95;;
70547;SDS011;58099;43.406;3.698;2022-10-31T23:54:41;39.63;;;12.52;;
70547;SDS011;58099;43.406;3.698;2022-10-31T23:57:08;30.57;;;12.90;;
70547;SDS011;58099;43.406;3.698;2022-10-31T23:59:36;30.38;;;13.52;;
